Time;durP1;ratioP1;P1;durP2;ratioP2;P2;SDS_P1;SDS_P2;PMS_P1;PMS_P2;Temp;Humidity;BMP_temperature;BMP_pressure;BME280_temperature;BME280_humidity;BME280_pressure;Samples;Min_cycle;Max_cycle;Signal;HPM_P1;HPM_P2
2023/03/11 00:00:17;;;;;;;10.07;5.00;;;;;;;14.93;75.90;99833.41;5025449;28;20746;-86
2023/03/11 00:02:47;;;;;;;9.35;4.57;;;;;;;15.23;75.75;99874.34;5004031;28;20469;-86
2023/03/11 00:05:20;;;;;;;9.73;4.50;;;;;;;14.86;75.95;99821.88;4995625;28;20029;-86
2023/03/11 00:07:46;;;;;;;8.27;4.47;;;;;;;15.14;75.89;99859.28;5001783;28;20025;-86
2023/03/11 00:10:16;;;;;;;10.55;4.82;;;;;;;15.17;75.88;99861.94;5022753;28;20112;-87
2023/03/11 00:12:42;;;;;;;9.93;4.88;;;;;;;15.18;75.92;99858.47;4995143;28;20025;-87
2023/03/11 00:15:08;;;;;;;8.65;4.68;;;;;;;15.09;76.11;99845.16;5022115;28;20022;-86
2023/03/11 00:17:34;;;;;;;13.27;5.18;;;;;;;14.72;75.90;99790.91;5005610;28;20110;-86
2023/03/11 00:19:59;;;;;;;9.65;5.07;;;;;;;14.79;76.07;99800.69;5011391;28;20117;-85
2023/03/11 00:22:25;;;;;;;7.82;4.68;;;;;;;14.72;76.02;99780.41;5010959;28;20044;-85
2023/03/11 00:24:50;;;;;;;9.73;4.43;;;;;;;14.72;76.14;99770.78;5013984;28;20037;-86
2023/03/11 00:27:16;;;;;;;9.65;5.00;;;;;;;14.93;76.10;99809.75;5010896;28;20022;-86
2023/03/11 00:29:41;;;;;;;6.57;4.38;;;;;;;15.03;76.32;99827.50;5016085;28;20033;-86
2023/03/11 00:32:07;;;;;;;11.57;4.95;;;;;;;14.82;76.19;99795.50;5010369;28;20080;-86
2023/03/11 00:34:33;;;;;;;8.45;4.50;;;;;;;14.81;76.03;99767.44;5010102;28;20046;-86
2023/03/11 00:36:58;;;;;;;10.68;4.68;;;;;;;14.98;76.25;99812.47;5022532;28;20757;-86
2023/03/11 00:39:24;;;;;;;10.00;4.68;;;;;;;15.01;76.09;99804.66;5009175;28;20036;-85
2023/03/11 00:41:50;;;;;;;9.65;4.75;;;;;;;14.81;75.95;99775.31;4999424;28;20042;-88
2023/03/11 00:44:16;;;;;;;7.70;4.65;;;;;;;14.97;76.15;99805.47;5028670;28;20026;-86
2023/03/11 00:46:41;;;;;;;8.75;4.55;;;;;;;15.06;76.02;99805.63;4996446;28;20036;-87
2023/03/11 00:49:07;;;;;;;9.52;4.60;;;;;;;15.13;76.12;99811.91;5026057;28;20025;-87
2023/03/11 00:51:33;;;;;;;7.80;4.32;;;;;;;14.93;75.71;99774.72;5013099;28;20037;-87
2023/03/11 00:53:59;;;;;;;9.23;4.93;;;;;;;14.71;76.16;99741.81;5010969;28;20044;-87
2023/03/11 00:56:25;;;;;;;8.07;4.75;;;;;;;14.88;75.88;99760.56;5000136;28;20410;-87
2023/03/11 00:58:50;;;;;;;9.30;4.47;;;;;;;15.14;75.85;99804.06;5003915;28;20038;-87
2023/03/11 01:01:18;;;;;;;9.48;4.60;;;;;;;14.92;76.05;99765.03;5016126;28;20036;-87
2023/03/11 01:03:44;;;;;;;8.57;4.55;;;;;;;15.16;75.96;99802.34;5002393;28;20402;-87
2023/03/11 01:06:10;;;;;;;6.55;4.32;;;;;;;15.20;75.90;99793.66;5013258;28;20030;-87
2023/03/11 01:08:36;;;;;;;6.45;4.60;;;;;;;15.14;75.86;99790.91;5005019;28;20037;-87
2023/03/11 01:11:02;;;;;;;8.27;4.57;;;;;;;14.90;75.94;99736.09;5015225;28;20033;-87
2023/03/11 01:13:28;;;;;;;9.43;4.38;;;;;;;15.19;75.88;99793.63;5001067;28;20449;-87
2023/03/11 01:15:54;;;;;;;;;;;;;;;15.20;75.92;99784.88;5016524;28;20041;-87
2023/03/11 01:18:20;;;;;;;10.10;4.75;;;;;;;15.03;75.98;99747.75;5027675;28;19924;-87
2023/03/11 01:20:46;;;;;;;6.38;4.40;;;;;;;15.12;76.34;99774.22;5018572;28;20036;-88
2023/03/11 01:23:13;;;;;;;7.53;4.40;;;;;;;15.13;76.23;99770.72;4996473;28;20099;-88
2023/03/11 01:25:39;;;;;;;6.43;4.22;;;;;;;15.06;76.21;99742.53;4996984;28;20029;-87
2023/03/11 01:28:07;;;;;;;9.75;4.68;;;;;;;15.15;76.09;99752.34;5014108;28;20532;-88
2023/03/11 01:30:34;;;;;;;9.35;4.15;;;;;;;15.07;76.07;99739.06;5013055;28;20112;-88
2023/03/11 01:33:00;;;;;;;7.65;4.15;;;;;;;14.99;76.04;99719.63;5013821;28;20054;-88
2023/03/11 01:35:28;;;;;;;7.55;4.28;;;;;;;15.09;76.15;99734.72;5028791;28;20028;-87
2023/03/11 01:37:54;;;;;;;5.75;3.70;;;;;;;15.12;76.06;99732.13;5005745;28;20478;-88
2023/03/11 01:40:33;;;;;;;9.93;4.10;;;;;;;15.15;76.14;99734.81;5028938;28;20036;-88
2023/03/11 01:42:59;;;;;;;7.28;4.25;;;;;;;14.79;75.59;99654.41;5012573;28;20053;-87
2023/03/11 01:45:28;;;;;;;5.88;4.05;;;;;;;15.18;76.15;99728.75;5014573;28;20033;-87
2023/03/11 01:47:54;;;;;;;7.47;4.53;;;;;;;15.12;75.95;99718.13;5024105;28;20034;-87
2023/03/11 01:50:19;;;;;;;8.35;4.05;;;;;;;14.92;75.82;99681.81;5013586;28;20109;-87
2023/03/11 01:52:46;;;;;;;8.60;4.40;;;;;;;15.02;75.87;99696.00;5005834;28;20503;-87
2023/03/11 01:55:12;;;;;;;;;;;;;;;15.16;76.00;99722.56;4986556;28;20033;-87
2023/03/11 01:57:39;;;;;;;7.03;4.07;;;;;;;15.18;75.66;99718.22;5015163;28;19987;-87
2023/03/11 02:00:08;;;;;;;7.13;4.10;;;;;;;15.16;75.86;99707.69;4999847;28;20029;-87
2023/03/11 02:02:36;;;;;;;8.35;3.92;;;;;;;15.18;75.88;99715.59;5015484;28;20029;-86
2023/03/11 02:05:03;;;;;;;7.22;3.72;;;;;;;15.17;75.82;99700.66;5010100;28;20026;-86
2023/03/11 02:07:28;;;;;;;6.07;4.25;;;;;;;14.94;75.75;99659.06;5012276;28;20530;-88
2023/03/11 02:09:54;;;;;;;7.28;4.10;;;;;;;14.89;75.87;99671.25;4995062;28;20033;-86
2023/03/11 02:12:20;;;;;;;7.72;4.32;;;;;;;14.93;75.60;99670.44;5007067;28;20037;-87
2023/03/11 02:14:48;;;;;;;6.25;4.20;;;;;;;14.84;75.94;99662.41;5013972;28;20026;-86
2023/03/11 02:17:14;;;;;;;5.93;3.80;;;;;;;14.84;76.15;99657.13;5013203;28;20026;-86
2023/03/11 02:19:40;;;;;;;10.15;4.40;;;;;;;15.15;75.96;99708.50;5031158;28;20629;-85
2023/03/11 02:22:06;;;;;;;7.43;4.00;;;;;;;15.01;75.86;99684.63;5019905;28;20026;-86
2023/03/11 02:24:45;;;;;;;9.38;4.40;;;;;;;15.15;76.01;99705.88;5026797;28;20057;-87
2023/03/11 02:27:13;;;;;;;7.30;4.03;;;;;;;15.16;75.90;99699.78;5008311;28;20044;-87
2023/03/11 02:29:39;;;;;;;8.27;3.55;;;;;;;15.00;76.05;99679.31;4979251;28;20116;-87
2023/03/11 02:32:06;;;;;;;;;;;;;;;15.18;75.63;99703.34;5011903;28;20083;-86
2023/03/11 02:34:35;;;;;;;8.32;4.15;;;;;;;14.98;75.98;99668.78;5012672;28;19945;-87
2023/03/11 02:37:05;;;;;;;6.50;3.63;;;;;;;14.92;76.05;99644.13;4991966;28;20025;-87
2023/03/11 02:39:43;;;;;;;6.18;3.58;;;;;;;15.18;76.01;99689.31;5001774;28;20056;-85
2023/03/11 02:42:14;;;;;;;8.10;4.25;;;;;;;15.15;76.00;99678.72;4999343;28;20182;-85
2023/03/11 02:44:41;;;;;;;6.75;3.60;;;;;;;15.19;75.91;99675.28;5012533;28;20037;-86
2023/03/11 02:47:07;;;;;;;6.72;4.22;;;;;;;15.14;75.77;99664.69;5006210;28;20112;-87
2023/03/11 02:49:33;;;;;;;5.25;3.45;;;;;;;15.19;75.77;99665.63;5004625;28;20168;-87
2023/03/11 02:51:59;;;;;;;7.47;3.75;;;;;;;15.08;75.87;99640.91;5014405;28;20474;-88
2023/03/11 02:54:24;;;;;;;8.88;4.50;;;;;;;15.09;75.81;99645.34;5014672;28;20090;-88
2023/03/11 02:56:50;;;;;;;7.13;4.03;;;;;;;15.15;75.78;99655.06;5014071;28;20048;-88
2023/03/11 02:59:16;;;;;;;6.07;3.85;;;;;;;14.90;75.69;99615.19;5004038;28;20084;-85
2023/03/11 03:01:42;;;;;;;10.40;4.35;;;;;;;15.07;75.68;99642.66;5024464;28;20040;-86
2023/03/11 03:04:07;;;;;;;6.78;3.58;;;;;;;15.09;75.68;99645.34;5011275;28;20025;-87
2023/03/11 03:06:33;;;;;;;6.30;3.70;;;;;;;14.98;75.72;99620.56;5012357;28;20517;-86
2023/03/11 03:08:59;;;;;;;6.95;3.90;;;;;;;14.90;75.56;99616.91;4991334;28;20022;-86
2023/03/11 03:11:24;;;;;;;7.70;4.15;;;;;;;14.90;75.78;99612.56;5002533;28;20557;-88
2023/03/11 03:13:50;;;;;;;6.72;4.03;;;;;;;15.12;75.62;99647.13;4996198;28;20025;-88
2023/03/11 03:16:15;;;;;;;8.23;3.90;;;;;;;15.07;75.73;99642.66;5012085;28;20593;-87
2023/03/11 03:18:41;;;;;;;5.50;3.60;;;;;;;14.94;75.58;99624.00;5007510;28;20390;-88
2023/03/11 03:21:06;;;;;;;7.97;4.30;;;;;;;14.83;75.72;99598.41;4994653;28;20034;-88
2023/03/11 03:23:34;;;;;;;7.53;4.07;;;;;;;14.89;75.68;99597.63;4998873;28;20097;-87
2023/03/11 03:26:00;;;;;;;5.63;3.83;;;;;;;14.94;75.69;99600.34;5011987;28;20112;-86
2023/03/11 03:28:26;;;;;;;5.78;3.92;;;;;;;14.80;75.62;99585.22;5013845;28;20513;-88
2023/03/11 03:30:52;;;;;;;7.22;3.95;;;;;;;15.17;75.62;99633.16;5020134;28;20037;-88
2023/03/11 03:33:17;;;;;;;5.35;3.97;;;;;;;15.08;75.51;99612.00;5007390;28;20406;-86
2023/03/11 03:35:44;;;;;;;7.18;3.55;;;;;;;15.11;75.69;99614.66;5016686;28;20026;-85
2023/03/11 03:38:10;;;;;;;6.30;3.63;;;;;;;14.94;75.77;99571.44;4995323;28;20053;-85
2023/03/11 03:40:36;;;;;;;5.97;3.78;;;;;;;15.16;75.71;99626.16;5007782;28;20025;-85
2023/03/11 03:43:01;;;;;;;8.98;4.55;;;;;;;15.11;75.80;99612.03;4992056;28;20158;-87
2023/03/11 03:45:27;;;;;;;6.07;3.78;;;;;;;15.02;76.13;99607.50;4991805;28;20046;-87
2023/03/11 03:47:54;;;;;;;7.22;4.20;;;;;;;15.09;75.83;99607.63;4992068;28;20030;-85
2023/03/11 03:50:19;;;;;;;10.85;4.40;;;;;;;15.02;75.59;99582.97;4992884;28;20112;-85
2023/03/11 03:52:45;;;;;;;7.75;3.78;;;;;;;15.10;75.66;99604.13;5001985;28;20142;-85
2023/03/11 03:55:11;;;;;;;5.32;3.85;;;;;;;14.69;75.72;99534.25;4991815;28;20042;-87
2023/03/11 03:57:36;;;;;;;5.90;3.97;;;;;;;14.85;75.72;99566.91;5023154;28;20561;-87
2023/03/11 04:00:03;;;;;;;5.13;3.95;;;;;;;15.19;75.94;99610.41;4994712;28;20105;-87
2023/03/11 04:02:29;;;;;;;4.75;3.97;;;;;;;14.73;75.58;99536.06;4991711;28;20031;-86
2023/03/11 04:04:56;;;;;;;7.05;3.88;;;;;;;15.20;75.69;99606.06;5004208;28;20116;-87
2023/03/11 04:07:21;;;;;;;;;;;;;;;15.20;75.67;99593.81;4990998;28;20038;-86
2023/03/11 04:09:48;;;;;;;9.05;4.53;;;;;;;15.18;75.73;99597.28;5024469;28;19913;-87
2023/03/11 04:12:14;;;;;;;5.88;4.05;;;;;;;15.15;75.83;99600.72;5002168;28;20101;-87
2023/03/11 04:14:40;;;;;;;;;;;;;;;15.19;75.72;99588.50;4993627;28;20069;-86
2023/03/11 04:17:05;;;;;;;9.00;3.78;;;;;;;14.91;75.68;99542.47;5018637;28;19913;-86
2023/03/11 04:19:31;;;;;;;6.40;3.70;;;;;;;14.84;75.77;99533.63;4992761;28;20026;-86
2023/03/11 04:21:57;;;;;;;5.72;3.67;;;;;;;15.14;76.03;99580.53;4991573;28;20070;-86
2023/03/11 04:24:23;;;;;;;6.05;3.92;;;;;;;15.05;75.96;99568.13;4991439;28;20057;-86
2023/03/11 04:26:48;;;;;;;6.32;3.97;;;;;;;14.75;75.96;99512.41;4991623;28;20042;-86
2023/03/11 04:29:15;;;;;;;5.47;3.65;;;;;;;15.07;76.02;99570.81;4999100;28;20041;-86
2023/03/11 04:31:40;;;;;;;5.65;3.90;;;;;;;15.06;76.08;99569.91;5017890;28;20037;-87
2023/03/11 04:34:06;;;;;;;7.18;4.47;;;;;;;14.66;75.94;99498.25;5013534;28;20045;-86
2023/03/11 04:36:32;;;;;;;6.65;3.67;;;;;;;14.83;75.96;99532.72;5013402;28;20040;-87
2023/03/11 04:38:57;;;;;;;4.70;3.67;;;;;;;15.04;75.89;99557.59;5023511;28;20117;-87
2023/03/11 04:41:23;;;;;;;6.20;3.78;;;;;;;14.83;76.04;99519.56;4997408;28;20048;-86
2023/03/11 04:43:49;;;;;;;5.35;3.45;;;;;;;14.89;76.00;99517.91;4999165;28;20566;-86
2023/03/11 04:46:14;;;;;;;5.53;3.83;;;;;;;15.01;76.16;99536.53;4995185;28;20434;-87
2023/03/11 04:48:40;;;;;;;6.00;3.60;;;;;;;15.04;75.89;99533.94;5006858;28;20030;-86
2023/03/11 04:51:06;;;;;;;4.95;3.65;;;;;;;14.88;75.91;99508.25;5019471;28;20034;-86
2023/03/11 04:53:32;;;;;;;5.68;3.78;;;;;;;14.78;76.12;99494.97;4997460;28;20070;-86
2023/03/11 04:55:58;;;;;;;5.03;3.65;;;;;;;15.12;75.83;99536.69;4994774;28;20042;-86
2023/03/11 04:58:24;;;;;;;6.40;3.40;;;;;;;15.17;75.70;99533.25;5022754;28;20109;-86
2023/03/11 05:00:50;;;;;;;4.72;3.80;;;;;;;15.06;75.65;99513.81;4997813;28;20066;-86
2023/03/11 05:03:15;;;;;;;;;;;;;;;15.19;75.85;99522.75;4995201;28;20026;-88
2023/03/11 05:05:41;;;;;;;5.22;3.70;;;;;;;15.10;75.80;99506.84;5005097;28;19975;-88
2023/03/11 05:08:07;;;;;;;5.95;3.70;;;;;;;15.01;75.87;99483.94;5013048;28;20439;-88
2023/03/11 05:10:32;;;;;;;6.53;3.90;;;;;;;15.03;75.72;99484.84;5004327;28;20399;-87
2023/03/11 05:12:58;;;;;;;5.60;3.88;;;;;;;14.99;75.74;99481.28;5025872;28;20061;-87
2023/03/11 05:15:24;;;;;;;6.35;3.88;;;;;;;15.16;75.85;99515.72;5012744;28;20540;-87
2023/03/11 05:17:49;;;;;;;5.03;3.65;;;;;;;14.81;75.92;99463.47;5009970;28;20045;-87
2023/03/11 05:20:15;;;;;;;5.45;3.67;;;;;;;15.16;75.87;99528.00;4994680;28;20037;-87
2023/03/11 05:22:40;;;;;;;5.95;3.70;;;;;;;15.12;75.83;99527.06;5019769;28;20030;-87
2023/03/11 05:25:06;;;;;;;5.13;3.60;;;;;;;14.99;75.45;99498.81;5017333;28;20045;-87
2023/03/11 05:27:32;;;;;;;5.55;4.00;;;;;;;15.08;75.74;99538.38;4996180;28;20026;-87
2023/03/11 05:29:57;;;;;;;5.20;3.60;;;;;;;15.13;75.65;99551.59;5014070;28;20033;-87
2023/03/11 05:32:23;;;;;;;5.63;3.55;;;;;;;15.08;75.86;99538.38;5012131;28;20022;-87
2023/03/11 05:34:49;;;;;;;6.30;4.05;;;;;;;14.95;76.00;99525.91;4996776;28;20128;-88
2023/03/11 05:37:14;;;;;;;5.45;3.70;;;;;;;14.88;75.91;99513.50;4994606;28;20037;-86
2023/03/11 05:39:40;;;;;;;6.53;3.75;;;;;;;15.10;75.96;99535.78;5017650;28;20030;-87
2023/03/11 05:42:06;;;;;;;7.18;3.90;;;;;;;14.91;75.86;99503.06;5013890;28;20038;-87
2023/03/11 05:44:32;;;;;;;5.25;3.80;;;;;;;15.19;75.85;99544.69;5011633;28;20548;-86
2023/03/11 05:46:58;;;;;;;5.43;3.53;;;;;;;14.77;75.57;99479.16;4993758;28;20033;-86
2023/03/11 05:49:23;;;;;;;7.63;3.70;;;;;;;14.92;75.42;99489.03;5017871;28;20414;-86
2023/03/11 05:51:49;;;;;;;5.85;3.60;;;;;;;15.10;75.82;99527.91;5009663;28;20525;-87
2023/03/11 05:54:15;;;;;;;6.05;3.78;;;;;;;14.91;75.49;99488.16;5018156;28;20414;-86
2023/03/11 05:56:42;;;;;;;6.57;3.92;;;;;;;15.06;75.84;99519.06;4998000;28;20049;-85
2023/03/11 05:59:08;;;;;;;7.88;3.85;;;;;;;15.15;75.99;99527.09;5002706;28;20131;-86
2023/03/11 06:01:34;;;;;;;6.72;3.72;;;;;;;14.77;75.88;99468.66;4997046;28;20034;-86
2023/03/11 06:04:00;;;;;;;9.13;3.60;;;;;;;14.92;75.83;99483.78;5002213;28;20048;-86
2023/03/11 06:06:26;;;;;;;6.18;4.20;;;;;;;14.83;75.63;99474.88;4999841;28;20431;-88
2023/03/11 06:08:53;;;;;;;8.25;3.72;;;;;;;15.11;75.87;99508.63;4986737;28;20121;-90
2023/03/11 06:11:22;;;;;;;7.03;3.60;;;;;;;15.09;75.67;99499.81;5008568;28;20036;-91
2023/03/11 06:13:56;;;;;;;7.60;3.80;;;;;;;14.84;75.72;99463.53;5007215;28;20021;-90
2023/03/11 06:16:24;;;;;;;5.63;3.55;;;;;;;15.14;75.82;99506.06;5014237;28;20415;-90
2023/03/11 06:19:05;;;;;;;7.10;3.83;;;;;;;15.09;75.88;99511.25;5002349;28;20082;-92
2023/03/11 06:21:34;;;;;;;9.73;3.92;;;;;;;15.17;75.63;99520.09;5008108;28;20049;-91
2023/03/11 06:24:06;;;;;;;6.00;3.88;;;;;;;15.06;75.80;99498.91;5011685;28;20057;-89
2023/03/11 06:26:35;;;;;;;7.15;3.85;;;;;;;15.05;75.72;99489.28;5009164;28;20121;-91
2023/03/11 06:29:08;;;;;;;7.35;3.67;;;;;;;15.19;75.73;99513.13;5003123;28;20045;-90
2023/03/11 06:31:41;;;;;;;6.25;3.85;;;;;;;15.18;75.69;99508.75;5001723;28;20558;-90
2023/03/11 06:34:08;;;;;;;5.97;3.60;;;;;;;15.12;75.71;99497.25;4994358;28;20042;-90
2023/03/11 06:36:42;;;;;;;6.15;3.80;;;;;;;15.02;75.69;99478.69;4996736;28;20096;-92
2023/03/11 06:39:23;;;;;;;7.30;3.70;;;;;;;15.01;75.67;99465.53;5006421;28;20097;-92
2023/03/11 06:41:49;;;;;;;7.72;3.78;;;;;;;15.20;75.67;99495.63;5010400;28;20037;-89
2023/03/11 06:44:15;;;;;;;9.20;3.60;;;;;;;14.80;75.43;99427.56;5003291;28;20030;-91
2023/03/11 06:46:44;;;;;;;5.70;3.75;;;;;;;14.93;75.71;99454.91;5004993;28;20417;-89
2023/03/11 06:49:10;;;;;;;6.97;3.97;;;;;;;14.96;75.87;99467.19;5004442;28;20042;-88
2023/03/11 06:51:36;;;;;;;8.18;3.90;;;;;;;14.98;75.73;99466.34;4997832;28;20105;-89
2023/03/11 06:54:09;;;;;;;8.93;4.10;;;;;;;15.18;75.69;99494.72;4992000;28;20030;-93
2023/03/11 06:56:35;;;;;;;5.03;4.07;;;;;;;15.15;75.65;99487.66;5014590;28;20036;-92
2023/03/11 06:59:06;;;;;;;7.60;3.70;;;;;;;15.13;75.60;99478.84;4997436;28;20030;-93
2023/03/11 07:01:39;;;;;;;7.90;4.05;;;;;;;15.08;75.75;99464.75;4986408;28;20038;-89
2023/03/11 07:04:04;;;;;;;8.15;4.20;;;;;;;15.09;75.70;99453.41;5020705;28;20025;-93
2023/03/11 07:06:32;;;;;;;7.45;3.97;;;;;;;14.99;75.76;99430.47;5001241;28;20030;-91
2023/03/11 07:08:59;;;;;;;8.85;4.28;;;;;;;15.17;75.71;99470.16;5004338;28;20033;-89
2023/03/11 07:11:25;;;;;;;5.82;3.80;;;;;;;15.19;75.69;99459.66;5006866;28;20042;-90
2023/03/11 07:13:54;;;;;;;7.72;4.10;;;;;;;14.68;75.76;99381.81;4994120;28;20025;-91
2023/03/11 07:16:23;;;;;;;6.72;3.60;;;;;;;15.19;75.75;99455.28;4991436;28;20022;-91
2023/03/11 07:18:51;;;;;;;7.18;3.97;;;;;;;15.11;75.62;99445.50;5004347;28;20025;-92
2023/03/11 07:21:35;;;;;;;8.13;3.95;;;;;;;15.23;75.46;99461.47;5001707;28;20031;-92
2023/03/11 07:24:06;;;;;;;6.57;3.72;;;;;;;15.14;75.56;99435.94;4998080;28;20108;-91
2023/03/11 07:26:34;;;;;;;5.90;3.80;;;;;;;15.23;75.54;99445.69;4994228;28;20038;-89
2023/03/11 07:29:09;;;;;;;7.82;4.30;;;;;;;15.01;75.49;99411.22;5011735;28;20091;-92
2023/03/11 07:31:36;;;;;;;8.40;4.07;;;;;;;15.12;75.47;99411.38;5009238;28;20107;-91
2023/03/11 07:34:05;;;;;;;7.75;4.05;;;;;;;15.12;76.11;99424.50;4994272;28;20042;-91
2023/03/11 07:36:35;;;;;;;7.28;3.80;;;;;;;15.21;76.04;99426.38;5004400;28;20391;-93
2023/03/11 07:39:04;;;;;;;7.05;4.10;;;;;;;15.21;76.19;99415.88;5015890;28;20029;-91
2023/03/11 07:41:35;;;;;;;6.18;3.55;;;;;;;15.21;76.16;99414.09;5025125;28;20032;-91
2023/03/11 07:44:03;;;;;;;7.05;3.83;;;;;;;15.22;76.23;99418.53;5010561;28;20041;-91
2023/03/11 07:46:32;;;;;;;5.43;3.80;;;;;;;15.20;76.17;99409.72;5007093;28;20037;-90
2023/03/11 07:49:02;;;;;;;5.78;3.53;;;;;;;15.19;76.19;99400.06;5006519;28;20085;-91
2023/03/11 07:51:30;;;;;;;6.88;3.90;;;;;;;15.06;76.54;99377.09;5004827;28;20025;-88
2023/03/11 07:53:57;;;;;;;6.90;3.95;;;;;;;15.20;76.41;99396.59;5007939;28;20048;-87
2023/03/11 07:56:24;;;;;;;8.25;3.67;;;;;;;15.15;76.42;99379.84;4999726;28;20018;-87
2023/03/11 07:58:53;;;;;;;7.72;4.20;;;;;;;15.00;76.57;99370.00;4998520;28;20034;-89
2023/03/11 08:01:23;;;;;;;6.63;4.10;;;;;;;14.95;76.75;99366.44;5000091;28;20079;-88
2023/03/11 08:03:55;;;;;;;6.70;4.13;;;;;;;15.04;76.57;99381.44;5015088;28;20030;-88
2023/03/11 08:06:28;;;;;;;7.63;4.13;;;;;;;15.11;76.71;99382.41;5005210;28;20022;-88
2023/03/11 08:08:53;;;;;;;5.70;3.83;;;;;;;15.09;76.50;99376.25;5000395;28;20042;-87
2023/03/11 08:11:25;;;;;;;5.43;4.03;;;;;;;14.83;76.79;99346.13;5006008;28;20038;-91
2023/03/11 08:13:52;;;;;;;7.05;3.80;;;;;;;15.20;76.98;99406.22;5006590;28;20037;-89
2023/03/11 08:16:20;;;;;;;5.55;3.47;;;;;;;15.10;76.95;99396.44;4984603;28;20036;-88
2023/03/11 08:18:46;;;;;;;6.75;3.80;;;;;;;15.23;76.86;99416.75;5007863;28;20033;-89
2023/03/11 08:21:14;;;;;;;4.68;3.78;;;;;;;14.63;77.02;99322.22;5007915;28;20030;-88
2023/03/11 08:23:41;;;;;;;5.55;3.72;;;;;;;14.59;77.05;99306.38;4990687;28;20521;-86
2023/03/11 08:26:10;;;;;;;6.53;4.03;;;;;;;14.89;76.92;99350.59;5009527;28;20040;-91
2023/03/11 08:28:54;;;;;;;5.63;3.30;;;;;;;15.25;76.87;99401.91;4991669;28;20029;-91
2023/03/11 08:31:42;;;;;;;6.60;3.95;;;;;;;15.25;76.68;99404.53;4994327;28;20038;-92
2023/03/11 08:34:09;;;;;;;8.13;4.07;;;;;;;14.87;77.05;99344.44;5003018;28;20129;-90
2023/03/11 08:36:41;;;;;;;7.55;3.85;;;;;;;14.81;76.95;99342.59;5007282;28;20029;-91
2023/03/11 08:39:07;;;;;;;7.22;3.80;;;;;;;15.00;77.18;99362.13;5008735;28;20061;-93
2023/03/11 08:41:32;;;;;;;5.78;3.63;;;;;;;14.97;77.01;99354.22;5008846;28;20050;-92
2023/03/11 08:43:59;;;;;;;7.78;3.70;;;;;;;15.03;76.92;99359.53;5006088;28;20037;-90
2023/03/11 08:46:28;;;;;;;9.90;3.60;;;;;;;15.23;76.94;99390.47;5002091;28;20062;-89
2023/03/11 08:48:55;;;;;;;9.40;3.90;;;;;;;14.97;76.84;99322.66;4996148;28;20042;-90
2023/03/11 08:51:23;;;;;;;6.05;3.60;;;;;;;15.30;77.13;99373.88;4991206;28;20089;-91
2023/03/11 08:53:52;;;;;;;8.00;3.58;;;;;;;15.15;76.69;99337.78;4993322;28;20030;-90
2023/03/11 08:56:18;;;;;;;8.07;3.70;;;;;;;15.20;76.17;99335.22;5008811;28;20040;-89
2023/03/11 08:58:49;;;;;;;8.57;3.72;;;;;;;15.23;77.00;99330.88;5005333;28;20033;-88
2023/03/11 09:01:15;;;;;;;8.70;4.00;;;;;;;15.05;76.26;99288.59;5003729;28;20269;-88
2023/03/11 09:03:42;;;;;;;8.32;3.88;;;;;;;15.02;76.76;99276.28;5008198;28;20588;-88
2023/03/11 09:06:10;;;;;;;9.45;4.43;;;;;;;15.43;76.75;99335.47;5022808;28;20383;-88
2023/03/11 09:08:36;;;;;;;8.73;3.78;;;;;;;15.21;77.10;99294.91;5002821;28;20092;-88
2023/03/11 09:11:01;;;;;;;6.07;3.40;;;;;;;15.44;76.56;99330.22;4997066;28;20022;-88
2023/03/11 09:13:28;;;;;;;7.00;3.38;;;;;;;15.38;76.52;99308.25;5008752;28;20109;-90
2023/03/11 09:15:55;;;;;;;5.93;3.33;;;;;;;15.51;77.30;99333.81;5007692;28;20033;-91
2023/03/11 09:18:21;;;;;;;9.57;3.50;;;;;;;15.31;76.64;99285.38;5008736;28;20030;-91
2023/03/11 09:20:59;;;;;;;6.97;3.90;;;;;;;15.39;76.86;99302.13;4990155;28;20677;-91
2023/03/11 09:23:28;;;;;;;7.05;3.60;;;;;;;15.44;77.14;99301.28;5013881;28;20112;-91
2023/03/11 09:26:00;;;;;;;9.68;3.63;;;;;;;15.34;77.68;99288.91;5013313;28;20057;-92
2023/03/11 09:28:29;;;;;;;6.78;3.42;;;;;;;15.35;77.53;99284.56;4992275;28;20068;-92
2023/03/11 09:31:01;;;;;;;7.80;3.65;;;;;;;15.55;78.00;99326.84;5007321;28;20026;-92
2023/03/11 09:33:27;;;;;;;8.85;4.10;;;;;;;15.47;77.83;99314.50;5012728;28;20058;-93
2023/03/11 09:35:52;;;;;;;5.63;3.22;;;;;;;15.30;78.32;99281.84;4995949;28;20080;-93
2023/03/11 09:38:18;;;;;;;8.35;3.35;;;;;;;15.34;78.00;99282.78;5012111;28;20042;-90
2023/03/11 09:41:01;;;;;;;6.25;3.42;;;;;;;15.58;77.92;99314.59;4997621;28;20375;-92
2023/03/11 09:43:52;;;;;;;6.82;3.25;;;;;;;15.61;77.72;99314.63;5014224;28;20038;-91
2023/03/11 09:46:39;;;;;;;7.85;3.50;;;;;;;15.60;78.05;99301.44;5004251;28;20022;-92
2023/03/11 09:49:14;;;;;;;;;;;;;;;15.62;77.35;99295.34;5014084;28;20048;-89
2023/03/11 09:52:07;;;;;;;10.52;3.55;;;;;;;15.46;77.74;99275.88;5012632;28;19921;-90
2023/03/11 09:54:46;;;;;;;7.18;3.70;;;;;;;15.55;77.25;99293.50;4994975;28;20455;-91
2023/03/11 09:57:20;;;;;;;7.97;4.20;;;;;;;15.34;77.35;99243.31;5029174;28;20053;-90
2023/03/11 09:59:46;;;;;;;11.27;4.03;;;;;;;15.42;79.07;99257.44;5011248;28;20084;-87
2023/03/11 10:02:18;;;;;;;6.97;3.92;;;;;;;15.57;79.16;99286.50;5016795;28;20044;-87
2023/03/11 10:04:49;;;;;;;7.63;3.60;;;;;;;15.65;78.21;99291.88;4996503;28;20411;-86
2023/03/11 10:07:20;;;;;;;10.23;3.90;;;;;;;15.58;78.98;99275.16;4993619;28;20088;-85
2023/03/11 10:09:47;;;;;;;7.03;3.58;;;;;;;15.68;78.00;99287.53;5005619;28;20110;-86
2023/03/11 10:12:26;;;;;;;11.00;4.18;;;;;;;15.70;79.23;99300.69;5000399;28;20030;-88
2023/03/11 10:15:28;;;;;;;11.93;4.43;;;;;;;15.69;80.03;99298.94;4999562;28;20572;-88
2023/03/11 10:18:15;;;;;;;9.35;3.90;;;;;;;15.68;80.00;99298.06;5006214;28;20045;-87
2023/03/11 10:21:08;;;;;;;12.93;4.20;;;;;;;15.69;80.30;99288.41;5008603;28;20040;-87
2023/03/11 10:23:52;;;;;;;10.73;4.30;;;;;;;15.68;80.43;99303.31;5008222;28;20068;-88
2023/03/11 10:26:40;;;;;;;8.57;3.97;;;;;;;15.67;80.11;99293.63;5000239;28;20030;-88
2023/03/11 10:29:27;;;;;;;9.90;4.07;;;;;;;15.65;80.97;99286.59;5001004;28;20037;-89
2023/03/11 10:31:56;;;;;;;10.50;4.35;;;;;;;15.64;81.15;99297.97;5010983;28;20080;-90
2023/03/11 10:34:27;;;;;;;9.23;3.90;;;;;;;15.68;80.52;99319.09;5006122;28;20530;-90
2023/03/11 10:37:05;;;;;;;8.77;3.85;;;;;;;15.51;80.75;99304.00;5026566;28;20033;-90
2023/03/11 10:39:32;;;;;;;11.48;4.07;;;;;;;15.61;80.77;99308.50;5019484;28;20029;-90
2023/03/11 10:42:04;;;;;;;6.63;3.45;;;;;;;15.46;80.79;99277.66;5003292;28;20029;-90
2023/03/11 10:44:35;;;;;;;8.98;3.83;;;;;;;15.67;81.28;99321.72;5009640;28;20033;-87
2023/03/11 10:47:01;;;;;;;9.40;3.78;;;;;;;15.67;81.30;99316.44;5018482;28;20139;-88
2023/03/11 10:49:27;;;;;;;7.18;3.72;;;;;;;15.62;81.80;99307.59;5032935;28;20172;-88
2023/03/11 10:51:54;;;;;;;7.78;3.80;;;;;;;15.57;81.43;99293.53;5012284;28;20045;-89
2023/03/11 10:54:27;;;;;;;8.05;3.78;;;;;;;15.71;81.23;99317.38;5013672;28;20118;-89
2023/03/11 10:57:01;;;;;;;6.72;3.60;;;;;;;15.63;81.38;99314.66;5013420;28;20409;-88
2023/03/11 10:59:33;;;;;;;7.93;3.92;;;;;;;15.54;81.88;99307.56;5002451;28;20049;-87
2023/03/11 11:02:38;;;;;;;7.20;3.58;;;;;;;15.73;81.83;99334.09;5013670;28;20033;-90
2023/03/11 11:05:14;;;;;;;7.45;3.88;;;;;;;15.78;81.97;99327.97;5013581;28;20501;-92
2023/03/11 11:07:41;;;;;;;7.57;3.70;;;;;;;15.64;82.00;99296.25;5017964;28;20124;-91
2023/03/11 11:10:20;;;;;;;7.28;3.63;;;;;;;15.62;82.41;99283.94;5002958;28;20110;-90
2023/03/11 11:13:02;;;;;;;7.88;3.70;;;;;;;15.79;82.47;99316.59;5017487;28;20021;-91
2023/03/11 11:15:53;;;;;;;6.40;3.30;;;;;;;15.82;82.44;99318.38;5015048;28;20033;-89
2023/03/11 11:18:23;;;;;;;7.72;3.85;;;;;;;15.81;82.47;99317.50;5013576;28;20277;-93
2023/03/11 11:21:02;;;;;;;8.07;3.85;;;;;;;15.82;82.56;99307.84;5025867;28;20026;-91
2023/03/11 11:23:36;;;;;;;8.38;4.15;;;;;;;15.82;82.31;99313.13;5007575;28;20495;-90
2023/03/11 11:26:04;;;;;;;9.10;4.22;;;;;;;15.87;81.99;99309.66;5013855;28;20038;-87
2023/03/11 11:28:31;;;;;;;6.93;4.18;;;;;;;15.37;82.20;99233.72;5010735;28;20065;-89
2023/03/11 11:31:02;;;;;;;7.35;4.03;;;;;;;15.40;82.46;99240.75;5007393;28;20034;-88
2023/03/11 11:33:50;;;;;;;7.47;4.20;;;;;;;15.78;82.33;99304.31;4998726;28;20077;-87
2023/03/11 11:36:17;;;;;;;7.82;4.13;;;;;;;15.87;82.72;99311.38;5003817;28;20037;-87
2023/03/11 11:38:43;;;;;;;7.82;4.03;;;;;;;15.68;82.30;99282.25;5006901;28;20033;-89
2023/03/11 11:41:14;;;;;;;7.45;4.20;;;;;;;15.84;82.48;99301.72;5004481;28;20049;-89